sensor_id;sensor_type;location;lat;lon;timestamp;temperature;humidity
25208;DHT22;13153;52.316;21.166;2022-11-20T00:01:28;-3.40;99.90
25208;DHT22;13153;52.316;21.166;2022-11-20T00:03:55;-3.40;99.90
25208;DHT22;13153;52.316;21.166;2022-11-20T00:06:23;-3.40;99.90
25208;DHT22;13153;52.316;21.166;2022-11-20T00:08:50;-3.40;99.90
25208;DHT22;13153;52.316;21.166;2022-11-20T00:11:21;-3.40;99.90
25208;DHT22;13153;52.316;21.166;2022-11-20T00:13:50;-3.50;99.90
25208;DHT22;13153;52.316;21.166;2022-11-20T00:16:19;-3.50;99.90
25208;DHT22;13153;52.316;21.166;2022-11-20T00:18:47;-3.50;99.90
25208;DHT22;13153;52.316;21.166;2022-11-20T00:21:21;-3.60;99.90
25208;DHT22;13153;52.316;21.166;2022-11-20T00:23:49;-3.60;99.90
25208;DHT22;13153;52.316;21.166;2022-11-20T00:26:18;-3.70;99.90
25208;DHT22;13153;52.316;21.166;2022-11-20T00:28:50;-3.70;99.90
25208;DHT22;13153;52.316;21.166;2022-11-20T00:31:18;-3.70;99.90
25208;DHT22;13153;52.316;21.166;2022-11-20T00:33:44;-3.70;99.90
25208;DHT22;13153;52.316;21.166;2022-11-20T00:36:13;-3.70;99.90
25208;DHT22;13153;52.316;21.166;2022-11-20T00:38:41;-3.70;99.90
25208;DHT22;13153;52.316;21.166;2022-11-20T00:41:09;-3.80;99.90
25208;DHT22;13153;52.316;21.166;2022-11-20T00:43:37;-3.80;99.90
25208;DHT22;13153;52.316;21.166;2022-11-20T00:46:09;-3.80;99.90
25208;DHT22;13153;52.316;21.166;2022-11-20T00:48:37;-3.80;99.90
25208;DHT22;13153;52.316;21.166;2022-11-20T00:51:03;-3.80;99.90
25208;DHT22;13153;52.316;21.166;2022-11-20T00:53:30;-3.80;99.90
25208;DHT22;13153;52.316;21.166;2022-11-20T00:55:58;-3.80;99.90
25208;DHT22;13153;52.316;21.166;2022-11-20T00:58:31;-3.80;99.90
25208;DHT22;13153;52.316;21.166;2022-11-20T01:01:13;-3.80;99.90
25208;DHT22;13153;52.316;21.166;2022-11-20T01:03:42;-3.80;99.90
25208;DHT22;13153;52.316;21.166;2022-11-20T01:06:12;-3.80;99.90
25208;DHT22;13153;52.316;21.166;2022-11-20T01:08:40;-3.80;99.90
25208;DHT22;13153;52.316;21.166;2022-11-20T01:11:11;-3.70;99.90
25208;DHT22;13153;52.316;21.166;2022-11-20T01:13:39;-3.70;99.90
25208;DHT22;13153;52.316;21.166;2022-11-20T01:18:38;-3.80;99.90
25208;DHT22;13153;52.316;21.166;2022-11-20T01:21:10;-3.70;99.90
25208;DHT22;13153;52.316;21.166;2022-11-20T01:23:57;-3.70;99.90
25208;DHT22;13153;52.316;21.166;2022-11-20T01:26:26;-3.70;99.90
25208;DHT22;13153;52.316;21.166;2022-11-20T01:28:55;-3.70;99.90
25208;DHT22;13153;52.316;21.166;2022-11-20T01:31:29;-3.70;99.90
25208;DHT22;13153;52.316;21.166;2022-11-20T01:33:59;-3.70;99.90
25208;DHT22;13153;52.316;21.166;2022-11-20T01:36:31;-3.70;99.90
25208;DHT22;13153;52.316;21.166;2022-11-20T01:38:59;-3.70;99.90
25208;DHT22;13153;52.316;21.166;2022-11-20T01:41:29;-3.70;99.90
25208;DHT22;13153;52.316;21.166;2022-11-20T01:44:17;-3.80;99.90
25208;DHT22;13153;52.316;21.166;2022-11-20T01:47:12;-3.80;99.90
25208;DHT22;13153;52.316;21.166;2022-11-20T01:49:52;-3.80;99.90
25208;DHT22;13153;52.316;21.166;2022-11-20T01:52:38;-3.80;99.90
25208;DHT22;13153;52.316;21.166;2022-11-20T01:55:20;-3.80;99.90
25208;DHT22;13153;52.316;21.166;2022-11-20T01:57:51;-3.80;99.90
25208;DHT22;13153;52.316;21.166;2022-11-20T02:00:19;-3.80;99.90
25208;DHT22;13153;52.316;21.166;2022-11-20T02:02:52;-3.80;99.90
25208;DHT22;13153;52.316;21.166;2022-11-20T02:08:36;-3.80;99.90
25208;DHT22;13153;52.316;21.166;2022-11-20T02:11:03;-3.80;99.90
25208;DHT22;13153;52.316;21.166;2022-11-20T02:13:29;-3.80;99.90
25208;DHT22;13153;52.316;21.166;2022-11-20T02:16:25;-3.80;99.90
25208;DHT22;13153;52.316;21.166;2022-11-20T02:18:55;-3.80;99.90
25208;DHT22;13153;52.316;21.166;2022-11-20T02:21:43;-3.70;99.90
25208;DHT22;13153;52.316;21.166;2022-11-20T02:24:18;-3.70;99.90
25208;DHT22;13153;52.316;21.166;2022-11-20T02:29:42;-3.70;99.90
25208;DHT22;13153;52.316;21.166;2022-11-20T02:32:26;-3.60;99.90
25208;DHT22;13153;52.316;21.166;2022-11-20T02:34:53;-3.60;99.90
25208;DHT22;13153;52.316;21.166;2022-11-20T02:37:19;-3.70;99.90
25208;DHT22;13153;52.316;21.166;2022-11-20T02:39:48;-3.70;99.90
25208;DHT22;13153;52.316;21.166;2022-11-20T02:42:15;-3.60;99.90
25208;DHT22;13153;52.316;21.166;2022-11-20T02:44:41;-3.60;99.90
25208;DHT22;13153;52.316;21.166;2022-11-20T02:47:07;-3.60;99.90
25208;DHT22;13153;52.316;21.166;2022-11-20T02:49:32;-3.60;99.90
25208;DHT22;13153;52.316;21.166;2022-11-20T02:51:58;-3.60;99.90
25208;DHT22;13153;52.316;21.166;2022-11-20T02:54:24;-3.70;99.90
25208;DHT22;13153;52.316;21.166;2022-11-20T02:56:50;-3.70;99.90
25208;DHT22;13153;52.316;21.166;2022-11-20T02:59:16;-3.70;99.90
25208;DHT22;13153;52.316;21.166;2022-11-20T03:01:42;-3.70;99.90
25208;DHT22;13153;52.316;21.166;2022-11-20T03:04:08;-3.70;99.90
25208;DHT22;13153;52.316;21.166;2022-11-20T03:06:33;-3.80;99.90
25208;DHT22;13153;52.316;21.166;2022-11-20T03:08:59;-3.80;99.90
25208;DHT22;13153;52.316;21.166;2022-11-20T03:11:25;-3.80;99.90
25208;DHT22;13153;52.316;21.166;2022-11-20T03:13:51;-3.80;99.90
25208;DHT22;13153;52.316;21.166;2022-11-20T03:16:19;-3.80;99.90
25208;DHT22;13153;52.316;21.166;2022-11-20T03:18:46;-3.90;99.90
25208;DHT22;13153;52.316;21.166;2022-11-20T03:21:13;-3.90;99.90
25208;DHT22;13153;52.316;21.166;2022-11-20T03:23:40;-3.90;99.90
25208;DHT22;13153;52.316;21.166;2022-11-20T03:28:41;-4.00;99.90
25208;DHT22;13153;52.316;21.166;2022-11-20T03:31:13;-4.00;99.90
25208;DHT22;13153;52.316;21.166;2022-11-20T03:33:41;-4.00;99.90
25208;DHT22;13153;52.316;21.166;2022-11-20T03:36:09;-4.00;99.90
25208;DHT22;13153;52.316;21.166;2022-11-20T03:38:38;-4.00;99.90
25208;DHT22;13153;52.316;21.166;2022-11-20T03:41:08;-4.00;99.90
25208;DHT22;13153;52.316;21.166;2022-11-20T03:43:38;-4.10;99.90
25208;DHT22;13153;52.316;21.166;2022-11-20T03:46:05;-4.10;99.90
25208;DHT22;13153;52.316;21.166;2022-11-20T03:48:31;-4.10;99.90
25208;DHT22;13153;52.316;21.166;2022-11-20T03:51:11;-4.10;99.90
25208;DHT22;13153;52.316;21.166;2022-11-20T03:53:39;-4.00;99.90
25208;DHT22;13153;52.316;21.166;2022-11-20T03:56:05;-4.00;99.90
25208;DHT22;13153;52.316;21.166;2022-11-20T03:58:33;-4.00;99.90
25208;DHT22;13153;52.316;21.166;2022-11-20T04:01:10;-4.10;99.90
25208;DHT22;13153;52.316;21.166;2022-11-20T04:03:39;-4.00;99.90
25208;DHT22;13153;52.316;21.166;2022-11-20T04:06:09;-4.10;99.90
25208;DHT22;13153;52.316;21.166;2022-11-20T04:08:41;-4.10;99.90
25208;DHT22;13153;52.316;21.166;2022-11-20T04:11:16;-4.20;99.90
25208;DHT22;13153;52.316;21.166;2022-11-20T04:13:48;-4.20;99.90
25208;DHT22;13153;52.316;21.166;2022-11-20T04:16:15;-4.20;99.90
25208;DHT22;13153;52.316;21.166;2022-11-20T04:18:42;-4.20;99.90
25208;DHT22;13153;52.316;21.166;2022-11-20T04:21:09;-4.30;99.90
25208;DHT22;13153;52.316;21.166;2022-11-20T04:23:35;-4.30;99.90
25208;DHT22;13153;52.316;21.166;2022-11-20T04:26:06;-4.30;99.90
25208;DHT22;13153;52.316;21.166;2022-11-20T04:28:33;-4.30;99.90
25208;DHT22;13153;52.316;21.166;2022-11-20T04:31:05;-4.30;99.90
25208;DHT22;13153;52.316;21.166;2022-11-20T04:33:33;-4.30;99.90
25208;DHT22;13153;52.316;21.166;2022-11-20T04:36:07;-4.30;99.90
25208;DHT22;13153;52.316;21.166;2022-11-20T04:38:36;-4.30;99.90
25208;DHT22;13153;52.316;21.166;2022-11-20T04:41:05;-4.30;99.90
25208;DHT22;13153;52.316;21.166;2022-11-20T04:43:32;-4.40;99.90
25208;DHT22;13153;52.316;21.166;2022-11-20T04:45:59;-4.40;99.90
25208;DHT22;13153;52.316;21.166;2022-11-20T04:48:26;-4.40;99.90
25208;DHT22;13153;52.316;21.166;2022-11-20T04:50:53;-4.40;99.90
25208;DHT22;13153;52.316;21.166;2022-11-20T04:53:20;-4.40;99.90
25208;DHT22;13153;52.316;21.166;2022-11-20T04:55:46;-4.40;99.90
25208;DHT22;13153;52.316;21.166;2022-11-20T04:58:12;-4.40;99.90
25208;DHT22;13153;52.316;21.166;2022-11-20T05:00:40;-4.50;99.90
25208;DHT22;13153;52.316;21.166;2022-11-20T05:03:06;-4.40;99.90
25208;DHT22;13153;52.316;21.166;2022-11-20T05:05:33;-4.50;99.90
25208;DHT22;13153;52.316;21.166;2022-11-20T05:07:59;-4.40;99.90
25208;DHT22;13153;52.316;21.166;2022-11-20T05:10:26;-4.40;99.90
25208;DHT22;13153;52.316;21.166;2022-11-20T05:12:52;-4.50;99.90
25208;DHT22;13153;52.316;21.166;2022-11-20T05:15:18;-4.40;99.90
25208;DHT22;13153;52.316;21.166;2022-11-20T05:17:51;-4.40;99.90
25208;DHT22;13153;52.316;21.166;2022-11-20T05:20:18;-4.40;99.90
25208;DHT22;13153;52.316;21.166;2022-11-20T05:22:44;-4.50;99.90
25208;DHT22;13153;52.316;21.166;2022-11-20T05:25:11;-4.50;99.90
25208;DHT22;13153;52.316;21.166;2022-11-20T05:27:37;-4.50;99.90
25208;DHT22;13153;52.316;21.166;2022-11-20T05:30:04;-4.50;99.90
25208;DHT22;13153;52.316;21.166;2022-11-20T05:32:31;-4.50;99.90
25208;DHT22;13153;52.316;21.166;2022-11-20T05:34:57;-4.50;99.90
25208;DHT22;13153;52.316;21.166;2022-11-20T05:37:22;-4.50;99.90
25208;DHT22;13153;52.316;21.166;2022-11-20T05:39:48;-4.50;99.90
25208;DHT22;13153;52.316;21.166;2022-11-20T05:42:14;-4.50;99.90
25208;DHT22;13153;52.316;21.166;2022-11-20T05:44:56;-4.60;99.90
25208;DHT22;13153;52.316;21.166;2022-11-20T05:47:23;-4.60;99.90
25208;DHT22;13153;52.316;21.166;2022-11-20T05:49:49;-4.60;99.90
25208;DHT22;13153;52.316;21.166;2022-11-20T05:52:14;-4.70;99.90
25208;DHT22;13153;52.316;21.166;2022-11-20T05:54:40;-4.70;99.90
25208;DHT22;13153;52.316;21.166;2022-11-20T05:57:06;-4.70;99.90
25208;DHT22;13153;52.316;21.166;2022-11-20T05:59:31;-4.80;99.90
25208;DHT22;13153;52.316;21.166;2022-11-20T06:01:57;-4.80;99.90
25208;DHT22;13153;52.316;21.166;2022-11-20T06:04:23;-4.80;99.90
25208;DHT22;13153;52.316;21.166;2022-11-20T06:06:49;-4.80;99.90
25208;DHT22;13153;52.316;21.166;2022-11-20T06:09:14;-4.80;99.90
25208;DHT22;13153;52.316;21.166;2022-11-20T06:11:40;-4.80;99.90
25208;DHT22;13153;52.316;21.166;2022-11-20T06:14:06;-4.80;99.90
25208;DHT22;13153;52.316;21.166;2022-11-20T06:16:31;-4.80;99.90
25208;DHT22;13153;52.316;21.166;2022-11-20T06:18:57;-4.80;99.90
25208;DHT22;13153;52.316;21.166;2022-11-20T06:21:23;-4.80;99.90
25208;DHT22;13153;52.316;21.166;2022-11-20T06:23:50;-4.80;99.90
25208;DHT22;13153;52.316;21.166;2022-11-20T06:26:24;-4.70;99.90
25208;DHT22;13153;52.316;21.166;2022-11-20T06:28:51;-4.70;99.90
25208;DHT22;13153;52.316;21.166;2022-11-20T06:31:20;-4.60;99.90
25208;DHT22;13153;52.316;21.166;2022-11-20T06:33:47;-4.60;99.90
25208;DHT22;13153;52.316;21.166;2022-11-20T06:36:15;-4.40;99.90
25208;DHT22;13153;52.316;21.166;2022-11-20T06:38:43;-4.30;99.90
25208;DHT22;13153;52.316;21.166;2022-11-20T06:41:15;-4.20;99.90
25208;DHT22;13153;52.316;21.166;2022-11-20T06:43:43;-4.10;99.90
25208;DHT22;13153;52.316;21.166;2022-11-20T06:46:10;-3.90;99.90
25208;DHT22;13153;52.316;21.166;2022-11-20T06:48:38;-3.80;99.90
25208;DHT22;13153;52.316;21.166;2022-11-20T06:51:04;-3.70;99.90
25208;DHT22;13153;52.316;21.166;2022-11-20T06:53:32;-3.70;99.90
25208;DHT22;13153;52.316;21.166;2022-11-20T06:55:57;-3.60;99.90
25208;DHT22;13153;52.316;21.166;2022-11-20T06:58:25;-3.50;99.90
25208;DHT22;13153;52.316;21.166;2022-11-20T07:00:52;-3.30;99.90
25208;DHT22;13153;52.316;21.166;2022-11-20T07:03:18;-3.20;99.90
25208;DHT22;13153;52.316;21.166;2022-11-20T07:05:43;-3.20;99.90
25208;DHT22;13153;52.316;21.166;2022-11-20T07:08:12;-3.10;99.90
25208;DHT22;13153;52.316;21.166;2022-11-20T07:10:37;-3.00;99.90
25208;DHT22;13153;52.316;21.166;2022-11-20T07:13:03;-2.80;99.90
25208;DHT22;13153;52.316;21.166;2022-11-20T07:15:29;-2.70;99.90
25208;DHT22;13153;52.316;21.166;2022-11-20T07:17:58;-2.50;99.90
25208;DHT22;13153;52.316;21.166;2022-11-20T07:20:25;-2.40;99.90
25208;DHT22;13153;52.316;21.166;2022-11-20T07:22:56;-2.20;99.90
25208;DHT22;13153;52.316;21.166;2022-11-20T07:25:24;-2.10;99.90
25208;DHT22;13153;52.316;21.166;2022-11-20T07:27:50;-2.00;99.90
25208;DHT22;13153;52.316;21.166;2022-11-20T07:30:19;-1.80;99.90
25208;DHT22;13153;52.316;21.166;2022-11-20T07:32:51;-1.60;99.90
25208;DHT22;13153;52.316;21.166;2022-11-20T07:35:18;-1.50;99.90
25208;DHT22;13153;52.316;21.166;2022-11-20T07:37:44;-1.30;99.90
25208;DHT22;13153;52.316;21.166;2022-11-20T07:40:12;-1.20;99.90
25208;DHT22;13153;52.316;21.166;2022-11-20T07:42:48;-1.10;99.90
25208;DHT22;13153;52.316;21.166;2022-11-20T07:45:18;-1.00;99.90
25208;DHT22;13153;52.316;21.166;2022-11-20T07:47:45;-0.90;99.90
25208;DHT22;13153;52.316;21.166;2022-11-20T07:50:11;-0.80;99.90
25208;DHT22;13153;52.316;21.166;2022-11-20T07:52:38;-0.80;99.90
25208;DHT22;13153;52.316;21.166;2022-11-20T07:55:04;-0.70;99.90
25208;DHT22;13153;52.316;21.166;2022-11-20T07:57:30;-0.70;99.90
25208;DHT22;13153;52.316;21.166;2022-11-20T07:59:56;-0.70;99.90
25208;DHT22;13153;52.316;21.166;2022-11-20T08:02:22;-0.60;99.90
25208;DHT22;13153;52.316;21.166;2022-11-20T08:04:47;-0.50;99.90
25208;DHT22;13153;52.316;21.166;2022-11-20T08:07:13;-0.40;99.90
25208;DHT22;13153;52.316;21.166;2022-11-20T08:09:39;-0.20;99.90
25208;DHT22;13153;52.316;21.166;2022-11-20T08:12:05;-0.10;99.90
25208;DHT22;13153;52.316;21.166;2022-11-20T08:14:49;0.10;99.90
25208;DHT22;13153;52.316;21.166;2022-11-20T08:17:15;0.20;99.90
25208;DHT22;13153;52.316;21.166;2022-11-20T08:19:41;0.10;99.90
25208;DHT22;13153;52.316;21.166;2022-11-20T08:22:07;0.10;99.90
25208;DHT22;13153;52.316;21.166;2022-11-20T08:24:32;0.20;99.90
25208;DHT22;13153;52.316;21.166;2022-11-20T08:26:58;0.30;99.90
25208;DHT22;13153;52.316;21.166;2022-11-20T08:29:26;0.30;99.90
25208;DHT22;13153;52.316;21.166;2022-11-20T08:31:52;0.40;99.90
25208;DHT22;13153;52.316;21.166;2022-11-20T08:34:18;0.40;99.90
25208;DHT22;13153;52.316;21.166;2022-11-20T08:36:44;0.30;99.90
25208;DHT22;13153;52.316;21.166;2022-11-20T08:39:13;0.40;99.90
25208;DHT22;13153;52.316;21.166;2022-11-20T08:41:39;0.60;99.90
25208;DHT22;13153;52.316;21.166;2022-11-20T08:44:06;0.80;99.90
25208;DHT22;13153;52.316;21.166;2022-11-20T08:46:38;0.90;99.90
25208;DHT22;13153;52.316;21.166;2022-11-20T08:49:08;1.10;99.90
25208;DHT22;13153;52.316;21.166;2022-11-20T08:51:37;1.10;99.90
25208;DHT22;13153;52.316;21.166;2022-11-20T08:54:03;1.00;99.90
25208;DHT22;13153;52.316;21.166;2022-11-20T08:56:30;0.90;99.90
25208;DHT22;13153;52.316;21.166;2022-11-20T08:58:56;0.80;99.90
25208;DHT22;13153;52.316;21.166;2022-11-20T09:01:23;0.60;99.90
25208;DHT22;13153;52.316;21.166;2022-11-20T09:03:49;0.40;99.90
25208;DHT22;13153;52.316;21.166;2022-11-20T09:06:15;0.30;99.90
25208;DHT22;13153;52.316;21.166;2022-11-20T09:08:42;0.40;99.90
25208;DHT22;13153;52.316;21.166;2022-11-20T09:11:08;0.50;99.90
25208;DHT22;13153;52.316;21.166;2022-11-20T09:13:35;0.70;99.90
25208;DHT22;13153;52.316;21.166;2022-11-20T09:16:07;0.80;99.90
25208;DHT22;13153;52.316;21.166;2022-11-20T09:18:35;0.90;99.90
25208;DHT22;13153;52.316;21.166;2022-11-20T09:21:04;0.90;99.90
25208;DHT22;13153;52.316;21.166;2022-11-20T09:23:34;1.00;99.90
25208;DHT22;13153;52.316;21.166;2022-11-20T09:26:11;1.00;99.90
25208;DHT22;13153;52.316;21.166;2022-11-20T09:28:38;1.00;99.90
25208;DHT22;13153;52.316;21.166;2022-11-20T09:31:08;1.10;99.90
25208;DHT22;13153;52.316;21.166;2022-11-20T09:33:39;1.10;99.90
25208;DHT22;13153;52.316;21.166;2022-11-20T09:36:05;1.20;99.90
25208;DHT22;13153;52.316;21.166;2022-11-20T09:38:31;1.30;99.90
25208;DHT22;13153;52.316;21.166;2022-11-20T09:41:00;1.30;99.90
25208;DHT22;13153;52.316;21.166;2022-11-20T09:46:50;1.10;99.90
25208;DHT22;13153;52.316;21.166;2022-11-20T09:52:01;1.10;99.90
25208;DHT22;13153;52.316;21.166;2022-11-20T09:54:41;0.90;99.90
25208;DHT22;13153;52.316;21.166;2022-11-20T09:57:18;0.90;99.90
25208;DHT22;13153;52.316;21.166;2022-11-20T09:59:51;1.00;99.90
25208;DHT22;13153;52.316;21.166;2022-11-20T10:08:30;1.30;99.90
25208;DHT22;13153;52.316;21.166;2022-11-20T10:11:18;1.40;99.90
25208;DHT22;13153;52.316;21.166;2022-11-20T10:14:00;1.50;99.90
25208;DHT22;13153;52.316;21.166;2022-11-20T10:16:43;1.60;99.90
25208;DHT22;13153;52.316;21.166;2022-11-20T10:25:18;1.50;99.90
25208;DHT22;13153;52.316;21.166;2022-11-20T10:31:06;1.60;99.90
25208;DHT22;13153;52.316;21.166;2022-11-20T10:33:42;1.80;99.90
25208;DHT22;13153;52.316;21.166;2022-11-20T10:36:44;1.80;99.90
25208;DHT22;13153;52.316;21.166;2022-11-20T10:39:22;1.70;99.90
25208;DHT22;13153;52.316;21.166;2022-11-20T10:41:56;1.70;99.90
25208;DHT22;13153;52.316;21.166;2022-11-20T10:44:26;1.60;99.90
25208;DHT22;13153;52.316;21.166;2022-11-20T10:47:17;1.50;99.90
25208;DHT22;13153;52.316;21.166;2022-11-20T10:49:46;1.50;99.90
25208;DHT22;13153;52.316;21.166;2022-11-20T10:52:20;1.50;99.90
25208;DHT22;13153;52.316;21.166;2022-11-20T10:58:07;1.40;99.90
25208;DHT22;13153;52.316;21.166;2022-11-20T11:00:38;1.50;99.90
25208;DHT22;13153;52.316;21.166;2022-11-20T11:03:24;1.40;99.90
25208;DHT22;13153;52.316;21.166;2022-11-20T11:06:35;1.40;99.90
25208;DHT22;13153;52.316;21.166;2022-11-20T11:09:13;1.40;99.90
25208;DHT22;13153;52.316;21.166;2022-11-20T11:11:42;1.30;99.90
25208;DHT22;13153;52.316;21.166;2022-11-20T11:16:53;1.30;99.90
25208;DHT22;13153;52.316;21.166;2022-11-20T11:19:21;1.30;99.90
25208;DHT22;13153;52.316;21.166;2022-11-20T11:21:48;1.30;99.90
25208;DHT22;13153;52.316;21.166;2022-11-20T11:24:27;1.30;99.90
25208;DHT22;13153;52.316;21.166;2022-11-20T11:27:00;1.30;99.90
25208;DHT22;13153;52.316;21.166;2022-11-20T11:29:32;1.30;99.90
25208;DHT22;13153;52.316;21.166;2022-11-20T11:32:14;1.30;99.90
25208;DHT22;13153;52.316;21.166;2022-11-20T11:34:43;1.30;99.90
25208;DHT22;13153;52.316;21.166;2022-11-20T11:37:20;1.30;99.90
25208;DHT22;13153;52.316;21.166;2022-11-20T11:39:49;1.30;99.90
25208;DHT22;13153;52.316;21.166;2022-11-20T11:42:17;1.30;99.90
25208;DHT22;13153;52.316;21.166;2022-11-20T11:44:46;1.30;99.90
25208;DHT22;13153;52.316;21.166;2022-11-20T11:53:05;1.20;99.90
25208;DHT22;13153;52.316;21.166;2022-11-20T11:58:32;1.10;99.90
25208;DHT22;13153;52.316;21.166;2022-11-20T12:04:46;1.00;99.90
25208;DHT22;13153;52.316;21.166;2022-11-20T12:07:30;1.00;99.90
25208;DHT22;13153;52.316;21.166;2022-11-20T12:12:58;0.90;99.90
25208;DHT22;13153;52.316;21.166;2022-11-20T12:15:32;0.90;99.90
25208;DHT22;13153;52.316;21.166;2022-11-20T12:18:00;0.90;99.90
25208;DHT22;13153;52.316;21.166;2022-11-20T12:20:34;0.90;99.90
25208;DHT22;13153;52.316;21.166;2022-11-20T12:23:20;0.90;99.90
25208;DHT22;13153;52.316;21.166;2022-11-20T12:25:56;0.90;99.90
25208;DHT22;13153;52.316;21.166;2022-11-20T12:28:37;0.90;99.90
25208;DHT22;13153;52.316;21.166;2022-11-20T12:34:37;0.90;99.90
25208;DHT22;13153;52.316;21.166;2022-11-20T12:43:31;0.80;99.90
25208;DHT22;13153;52.316;21.166;2022-11-20T12:46:42;0.80;99.90
25208;DHT22;13153;52.316;21.166;2022-11-20T12:49:47;0.80;99.90
25208;DHT22;13153;52.316;21.166;2022-11-20T12:52:47;0.80;99.90
25208;DHT22;13153;52.316;21.166;2022-11-20T13:00:38;0.70;99.90
25208;DHT22;13153;52.316;21.166;2022-11-20T13:03:47;0.70;99.90
25208;DHT22;13153;52.316;21.166;2022-11-20T13:06:24;0.70;99.90
25208;DHT22;13153;52.316;21.166;2022-11-20T13:08:54;0.60;99.90
25208;DHT22;13153;52.316;21.166;2022-11-20T13:17:22;0.60;99.90
25208;DHT22;13153;52.316;21.166;2022-11-20T13:19:59;0.60;99.90
25208;DHT22;13153;52.316;21.166;2022-11-20T13:22:42;0.60;99.90
25208;DHT22;13153;52.316;21.166;2022-11-20T13:25:31;0.60;99.90
25208;DHT22;13153;52.316;21.166;2022-11-20T13:30:35;0.70;99.90
25208;DHT22;13153;52.316;21.166;2022-11-20T13:33:08;0.70;99.90
25208;DHT22;13153;52.316;21.166;2022-11-20T13:36:02;0.70;99.90
25208;DHT22;13153;52.316;21.166;2022-11-20T13:38:50;0.60;99.90
25208;DHT22;13153;52.316;21.166;2022-11-20T13:41:34;0.60;99.90
25208;DHT22;13153;52.316;21.166;2022-11-20T13:44:14;0.60;99.90
25208;DHT22;13153;52.316;21.166;2022-11-20T13:46:50;0.60;99.90
25208;DHT22;13153;52.316;21.166;2022-11-20T14:01:24;0.60;99.90
25208;DHT22;13153;52.316;21.166;2022-11-20T14:03:55;0.60;99.90
25208;DHT22;13153;52.316;21.166;2022-11-20T14:06:27;0.50;99.90
25208;DHT22;13153;52.316;21.166;2022-11-20T14:08:56;0.50;99.90
25208;DHT22;13153;52.316;21.166;2022-11-20T14:11:25;0.50;99.90
25208;DHT22;13153;52.316;21.166;2022-11-20T14:14:28;0.50;99.90
25208;DHT22;13153;52.316;21.166;2022-11-20T14:17:06;0.40;99.90
25208;DHT22;13153;52.316;21.166;2022-11-20T14:19:34;0.40;99.90
25208;DHT22;13153;52.316;21.166;2022-11-20T14:24:48;0.30;99.90
25208;DHT22;13153;52.316;21.166;2022-11-20T14:27:17;0.30;99.90
25208;DHT22;13153;52.316;21.166;2022-11-20T14:29:46;0.30;99.90
25208;DHT22;13153;52.316;21.166;2022-11-20T14:32:20;0.30;99.90
25208;DHT22;13153;52.316;21.166;2022-11-20T14:34:51;0.30;99.90
25208;DHT22;13153;52.316;21.166;2022-11-20T14:37:23;0.30;99.90
25208;DHT22;13153;52.316;21.166;2022-11-20T14:39:53;0.20;99.90
25208;DHT22;13153;52.316;21.166;2022-11-20T14:42:25;0.20;99.90
25208;DHT22;13153;52.316;21.166;2022-11-20T14:44:58;0.20;99.90
25208;DHT22;13153;52.316;21.166;2022-11-20T14:47:29;0.20;99.90
25208;DHT22;13153;52.316;21.166;2022-11-20T14:49:57;0.10;99.90
25208;DHT22;13153;52.316;21.166;2022-11-20T14:52:26;0.10;99.90
25208;DHT22;13153;52.316;21.166;2022-11-20T14:54:57;0.10;99.90
25208;DHT22;13153;52.316;21.166;2022-11-20T14:57:32;0.10;99.90
25208;DHT22;13153;52.316;21.166;2022-11-20T15:02:45;0.10;99.90
25208;DHT22;13153;52.316;21.166;2022-11-20T15:05:13;0.00;99.90
25208;DHT22;13153;52.316;21.166;2022-11-20T15:07:42;0.00;99.90
25208;DHT22;13153;52.316;21.166;2022-11-20T15:10:26;0.00;99.90
25208;DHT22;13153;52.316;21.166;2022-11-20T15:12:55;0.00;99.90
25208;DHT22;13153;52.316;21.166;2022-11-20T15:18:32;0.00;99.90
25208;DHT22;13153;52.316;21.166;2022-11-20T15:21:07;-0.10;99.90
25208;DHT22;13153;52.316;21.166;2022-11-20T15:23:37;-0.10;99.90
25208;DHT22;13153;52.316;21.166;2022-11-20T15:26:07;-0.20;99.90
25208;DHT22;13153;52.316;21.166;2022-11-20T15:28:39;-0.30;99.90
25208;DHT22;13153;52.316;21.166;2022-11-20T15:31:11;-0.30;99.90
25208;DHT22;13153;52.316;21.166;2022-11-20T15:33:38;-0.40;99.90
25208;DHT22;13153;52.316;21.166;2022-11-20T15:36:04;-0.40;99.90
25208;DHT22;13153;52.316;21.166;2022-11-20T15:38:30;-0.40;99.90
25208;DHT22;13153;52.316;21.166;2022-11-20T15:40:56;-0.40;99.90
25208;DHT22;13153;52.316;21.166;2022-11-20T15:43:22;-0.40;99.90
25208;DHT22;13153;52.316;21.166;2022-11-20T15:45:55;-0.40;99.90
25208;DHT22;13153;52.316;21.166;2022-11-20T15:48:38;-0.40;99.90
25208;DHT22;13153;52.316;21.166;2022-11-20T15:53:35;-0.50;99.90
25208;DHT22;13153;52.316;21.166;2022-11-20T15:56:01;-0.50;99.90
25208;DHT22;13153;52.316;21.166;2022-11-20T15:58:27;-0.60;99.90
25208;DHT22;13153;52.316;21.166;2022-11-20T16:00:53;-0.60;99.90
25208;DHT22;13153;52.316;21.166;2022-11-20T16:03:19;-0.60;99.90
25208;DHT22;13153;52.316;21.166;2022-11-20T16:05:45;-0.70;99.90
25208;DHT22;13153;52.316;21.166;2022-11-20T16:08:11;-0.60;99.90
25208;DHT22;13153;52.316;21.166;2022-11-20T16:10:38;-0.60;99.90
25208;DHT22;13153;52.316;21.166;2022-11-20T16:13:09;-0.60;99.90
25208;DHT22;13153;52.316;21.166;2022-11-20T16:15:58;-0.70;99.90
25208;DHT22;13153;52.316;21.166;2022-11-20T16:18:26;-0.60;99.90
25208;DHT22;13153;52.316;21.166;2022-11-20T16:20:53;-0.70;99.90
25208;DHT22;13153;52.316;21.166;2022-11-20T16:23:20;-0.70;99.90
25208;DHT22;13153;52.316;21.166;2022-11-20T16:25:47;-0.70;99.90
25208;DHT22;13153;52.316;21.166;2022-11-20T16:28:13;-0.70;99.90
25208;DHT22;13153;52.316;21.166;2022-11-20T16:30:39;-0.80;99.90
25208;DHT22;13153;52.316;21.166;2022-11-20T16:33:16;-0.80;99.90
25208;DHT22;13153;52.316;21.166;2022-11-20T16:35:42;-0.80;99.90
25208;DHT22;13153;52.316;21.166;2022-11-20T16:38:08;-0.80;99.90
25208;DHT22;13153;52.316;21.166;2022-11-20T16:40:34;-0.90;99.90
25208;DHT22;13153;52.316;21.166;2022-11-20T16:43:09;-0.90;99.90
25208;DHT22;13153;52.316;21.166;2022-11-20T16:45:43;-0.90;99.90
25208;DHT22;13153;52.316;21.166;2022-11-20T16:48:14;-0.90;99.90
25208;DHT22;13153;52.316;21.166;2022-11-20T16:50:52;-0.90;99.90
25208;DHT22;13153;52.316;21.166;2022-11-20T16:53:20;-0.90;99.90
25208;DHT22;13153;52.316;21.166;2022-11-20T16:55:46;-0.90;99.90
25208;DHT22;13153;52.316;21.166;2022-11-20T16:58:13;-1.00;99.90
25208;DHT22;13153;52.316;21.166;2022-11-20T17:00:40;-1.00;99.90
25208;DHT22;13153;52.316;21.166;2022-11-20T17:03:06;-0.90;99.90
25208;DHT22;13153;52.316;21.166;2022-11-20T17:05:33;-1.00;99.90
25208;DHT22;13153;52.316;21.166;2022-11-20T17:08:00;-1.00;99.90
25208;DHT22;13153;52.316;21.166;2022-11-20T17:10:26;-0.90;99.90
25208;DHT22;13153;52.316;21.166;2022-11-20T17:12:52;-0.90;99.90
25208;DHT22;13153;52.316;21.166;2022-11-20T17:15:17;-1.00;99.90
25208;DHT22;13153;52.316;21.166;2022-11-20T17:17:43;-1.00;99.90
25208;DHT22;13153;52.316;21.166;2022-11-20T17:20:10;-1.10;99.90
25208;DHT22;13153;52.316;21.166;2022-11-20T17:22:37;-1.10;99.90